Time;durP1;ratioP1;P1;durP2;ratioP2;P2;SDS_P1;SDS_P2;PMS_P1;PMS_P2;Temp;Humidity;BMP_temperature;BMP_pressure;BME280_temperature;BME280_humidity;BME280_pressure;Samples;Min_cycle;Max_cycle;Signal;HPM_P1;HPM_P2
2023/08/22 00:00:32;;;;;;;11.50;8.30;;;25.70;99.90;;;26.43;71.07;100905.06;4981444;28;21315;-64
2023/08/22 00:03:00;;;;;;;8.50;7.30;;;25.70;99.90;;;26.42;71.25;100908.75;4981958;28;20674;-64
2023/08/22 00:05:27;;;;;;;10.60;7.60;;;25.70;99.90;;;26.44;70.98;100904.84;4969823;28;20627;-63
2023/08/22 00:07:54;;;;;;;10.70;8.30;;;25.70;99.90;;;26.43;71.13;100907.72;4976880;28;20657;-63
2023/08/22 00:10:21;;;;;;;12.93;7.87;;;25.70;99.90;;;26.42;70.76;100903.38;4985735;28;20654;-63
2023/08/22 00:12:48;;;;;;;9.97;7.17;;;25.70;99.90;;;26.39;71.13;100909.13;4984076;28;20660;-63
2023/08/22 00:15:15;;;;;;;9.80;7.40;;;25.70;99.90;;;26.36;71.22;100909.56;4988825;28;20646;-63
2023/08/22 00:17:43;;;;;;;9.70;7.40;;;25.70;99.90;;;26.33;71.38;100912.63;4991446;28;20665;-64
2023/08/22 00:20:12;;;;;;;13.20;7.63;;;25.60;99.90;;;26.29;71.47;100914.09;5002389;28;20698;-65
2023/08/22 00:22:39;;;;;;;12.23;8.87;;;25.60;99.90;;;26.24;71.56;100906.66;5006978;28;20634;-62
2023/08/22 00:25:07;;;;;;;11.50;8.17;;;25.50;99.90;;;26.22;71.70;100902.56;4983319;28;21245;-63
2023/08/22 00:27:34;;;;;;;8.83;7.93;;;25.50;99.90;;;26.21;71.55;100900.91;4984185;28;20631;-63
2023/08/22 00:30:03;;;;;;;8.90;7.67;;;25.50;99.90;;;26.21;71.69;100896.41;4981687;28;20656;-64
2023/08/22 00:32:30;;;;;;;10.90;8.10;;;25.50;99.90;;;26.23;71.58;100889.00;4990567;28;20682;-63
2023/08/22 00:34:58;;;;;;;12.23;8.10;;;25.50;99.90;;;26.25;71.44;100899.47;4986931;28;20717;-63
2023/08/22 00:37:25;;;;;;;8.40;7.50;;;25.50;99.90;;;26.25;71.46;100900.31;4985226;28;20733;-63
2023/08/22 00:39:52;;;;;;;11.53;8.60;;;25.50;99.90;;;26.24;71.31;100903.19;4996487;28;20734;-61
2023/08/22 00:42:19;;;;;;;11.20;8.60;;;25.50;99.90;;;26.17;71.40;100898.66;5001171;28;20654;-63
2023/08/22 00:44:46;;;;;;;9.63;8.00;;;25.50;99.90;;;26.17;71.51;100895.97;4995753;28;20638;-64
2023/08/22 00:47:14;;;;;;;8.90;7.27;;;25.40;99.90;;;26.15;71.62;100905.25;4986140;28;20632;-63
2023/08/22 00:49:41;;;;;;;8.40;6.47;;;25.40;99.90;;;26.11;71.52;100896.78;4984405;28;20654;-64
2023/08/22 00:52:09;;;;;;;14.87;8.13;;;25.40;99.90;;;26.11;71.73;100901.31;4982369;28;20674;-62
2023/08/22 00:54:36;;;;;;;8.67;7.23;;;25.40;99.90;;;26.10;71.63;100889.81;4982225;28;20634;-64
2023/08/22 00:57:03;;;;;;;7.73;6.60;;;25.40;99.90;;;26.09;71.89;100892.69;4983142;28;20672;-64
2023/08/22 00:59:31;;;;;;;9.90;7.87;;;25.40;99.90;;;26.10;71.65;100889.81;4986121;28;20666;-63
2023/08/22 01:01:58;;;;;;;8.90;7.53;;;25.40;99.90;;;26.13;71.60;100891.22;4984721;28;20758;-63
2023/08/22 01:04:25;;;;;;;10.70;7.57;;;25.40;99.90;;;26.11;71.32;100893.28;4971757;28;20632;-63
2023/08/22 01:07:21;;;;;;;9.20;7.17;;;25.40;99.90;;;26.08;71.45;100891.88;4978071;28;20677;-64
2023/08/22 01:10:06;;;;;;;10.37;7.20;;;25.40;99.90;;;26.01;71.38;100891.00;5003459;28;20642;-63
2023/08/22 01:12:54;;;;;;;11.83;7.33;;;25.30;99.90;;;26.00;70.84;100884.00;4996722;28;20730;-64
2023/08/22 01:15:30;;;;;;;9.77;6.70;;;25.30;99.90;;;25.99;71.19;100881.53;4979480;28;20670;-65
2023/08/22 01:17:57;;;;;;;13.60;7.93;;;25.30;99.90;;;25.97;71.39;100870.22;4975672;28;20706;-63
2023/08/22 01:20:25;;;;;;;12.33;9.23;;;25.30;99.90;;;25.97;71.64;100873.72;5005008;28;20710;-63
2023/08/22 01:22:52;;;;;;;11.80;8.70;;;25.30;99.90;;;25.99;71.95;100878.84;4978619;28;20646;-63
2023/08/22 01:25:19;;;;;;;11.50;8.00;;;25.30;99.90;;;26.03;71.41;100880.09;4976147;28;20640;-63
2023/08/22 01:28:26;;;;;;;12.10;8.37;;;25.30;99.90;;;26.05;70.88;100876.19;4989080;28;21200;-64
2023/08/22 01:31:17;;;;;;;8.40;7.53;;;25.30;99.90;;;26.07;70.99;100873.31;5005811;28;20733;-63
2023/08/22 01:34:15;;;;;;;10.57;8.00;;;25.40;99.90;;;26.08;70.78;100883.84;4999469;28;20638;-63
2023/08/22 01:36:45;;;;;;;13.40;8.00;;;25.40;99.90;;;26.04;70.83;100884.44;4983127;28;20635;-62
2023/08/22 01:39:15;;;;;;;13.03;8.50;;;25.30;99.90;;;26.00;71.20;100873.31;4968990;28;20762;-63
2023/08/22 01:41:42;;;;;;;10.20;7.83;;;25.30;99.90;;;26.02;71.19;100887.28;5002007;28;20662;-63
2023/08/22 01:44:09;;;;;;;9.20;8.10;;;25.30;99.90;;;26.05;70.92;100881.53;4976986;28;20689;-63
2023/08/22 01:46:36;;;;;;;10.80;8.53;;;25.30;99.90;;;26.06;70.81;100877.03;4979688;28;20863;-63
2023/08/22 01:49:03;;;;;;;14.30;8.50;;;25.40;99.90;;;26.03;71.00;100878.25;4979019;28;20729;-62
2023/08/22 01:51:30;;;;;;;10.20;8.03;;;25.30;99.90;;;26.05;70.37;100873.53;4986240;28;20642;-63
2023/08/22 01:53:57;;;;;;;9.83;7.97;;;25.30;99.90;;;26.05;70.47;100876.19;4982823;28;20700;-63
2023/08/22 01:56:24;;;;;;;9.93;8.17;;;25.30;99.90;;;26.03;70.32;100870.22;4982041;28;20644;-63
2023/08/22 01:58:52;;;;;;;8.87;6.83;;;25.40;99.90;;;26.00;70.67;100867.16;4988712;28;20725;-63
2023/08/22 02:01:19;;;;;;;8.97;8.07;;;25.30;99.90;;;25.90;70.63;100862.19;4978455;28;21048;-63
2023/08/22 02:03:46;;;;;;;8.03;6.90;;;25.20;99.90;;;25.81;70.85;100857.25;4969934;28;20635;-64
2023/08/22 02:06:13;;;;;;;10.30;8.00;;;25.20;99.90;;;25.75;70.96;100852.69;4974719;28;20740;-63
2023/08/22 02:08:40;;;;;;;10.40;8.03;;;25.10;99.90;;;25.73;71.17;100849.41;4984211;28;20634;-63
2023/08/22 02:11:07;;;;;;;10.37;8.23;;;25.10;99.90;;;25.74;71.07;100843.06;4973151;28;20693;-63
2023/08/22 02:13:34;;;;;;;8.97;7.17;;;25.00;99.90;;;25.73;70.69;100847.56;4982855;28;20725;-64
2023/08/22 02:16:01;;;;;;;8.33;6.60;;;25.00;99.90;;;25.74;71.01;100848.41;4984922;28;20634;-63
2023/08/22 02:18:28;;;;;;;13.83;7.90;;;25.00;99.90;;;25.77;71.09;100853.34;4989361;28;20642;-63
2023/08/22 02:20:57;;;;;;;10.77;8.57;;;25.10;99.90;;;25.80;70.64;100850.25;4990196;28;20760;-63
2023/08/22 02:23:26;;;;;;;10.10;8.17;;;25.10;99.90;;;25.80;70.41;100848.41;4987308;28;20631;-63
2023/08/22 02:25:53;;;;;;;12.50;7.87;;;25.10;99.90;;;25.82;70.67;100853.53;4975911;28;21213;-64
2023/08/22 02:28:19;;;;;;;12.43;8.50;;;25.10;99.90;;;25.84;70.60;100856.84;4985033;28;20730;-63
2023/08/22 02:30:46;;;;;;;10.47;8.40;;;25.20;99.90;;;25.86;70.56;100852.94;4986460;28;20658;-63
2023/08/22 02:33:13;;;;;;;8.50;7.10;;;25.20;99.90;;;25.88;70.22;100861.56;4979944;28;21194;-63
2023/08/22 02:35:40;;;;;;;9.27;7.77;;;25.20;99.90;;;25.88;69.89;100861.56;4986649;28;21208;-64
2023/08/22 02:38:07;;;;;;;11.53;7.47;;;25.20;99.90;;;25.85;70.34;100853.16;4982205;28;20657;-62
2023/08/22 02:40:34;;;;;;;12.73;8.20;;;25.20;99.90;;;25.85;69.89;100847.81;4985164;28;21033;-63
2023/08/22 02:43:02;;;;;;;9.63;6.90;;;25.20;99.90;;;25.79;70.39;100843.28;4988535;28;20657;-63
2023/08/22 02:45:29;;;;;;;8.80;7.33;;;25.10;99.90;;;25.72;69.99;100847.78;4972203;28;21226;-63
2023/08/22 02:47:56;;;;;;;11.63;7.10;;;25.00;99.90;;;25.69;70.53;100843.66;5003605;28;20634;-64
2023/08/22 02:50:23;;;;;;;8.20;6.40;;;25.00;99.90;;;25.65;70.69;100853.13;4989656;28;20665;-63
2023/08/22 02:52:51;;;;;;;9.40;7.00;;;25.00;99.90;;;25.61;70.95;100840.34;4974057;28;20643;-63
2023/08/22 02:55:18;;;;;;;7.53;6.03;;;25.00;99.90;;;25.59;70.76;100851.25;5004415;28;20694;-63
2023/08/22 02:57:45;;;;;;;8.33;6.87;;;24.90;99.90;;;25.57;71.01;100849.81;4980704;28;21211;-63
2023/08/22 03:00:13;;;;;;;12.80;7.00;;;24.90;99.90;;;25.53;71.51;100854.75;4981594;28;20670;-63
2023/08/22 03:02:40;;;;;;;8.73;6.80;;;24.90;99.90;;;25.51;71.40;100859.47;4984647;28;20698;-62
2023/08/22 03:05:13;;;;;;;9.53;7.40;;;24.80;99.90;;;25.50;71.11;100859.63;4969142;28;21236;-63
2023/08/22 03:07:41;;;;;;;9.80;7.00;;;24.80;99.90;;;25.47;71.26;100850.19;4976285;28;20681;-63
2023/08/22 03:10:08;;;;;;;7.93;6.23;;;24.80;99.90;;;25.44;71.34;100861.28;4979372;28;20638;-63
2023/08/22 03:12:35;;;;;;;6.33;5.70;;;24.80;99.90;;;25.40;71.69;100866.19;5003717;28;20722;-63
2023/08/22 03:15:03;;;;;;;6.20;5.60;;;24.80;99.90;;;25.37;71.51;100863.91;4981670;28;20646;-63
2023/08/22 03:17:30;;;;;;;8.80;6.80;;;24.80;99.90;;;25.36;72.18;100864.91;4992288;28;20636;-63
2023/08/22 03:19:57;;;;;;;11.27;8.00;;;24.70;99.90;;;25.29;72.23;100869.44;4999196;28;20663;-63
2023/08/22 03:22:25;;;;;;;7.60;6.23;;;24.70;99.90;;;25.26;72.76;100868.97;4992264;28;21289;-63
2023/08/22 03:24:52;;;;;;;10.20;6.77;;;24.60;99.90;;;25.20;73.04;100869.78;4992361;28;20630;-63
2023/08/22 03:27:19;;;;;;;11.27;6.90;;;24.60;99.90;;;25.15;73.00;100873.03;4991874;28;20634;-63
2023/08/22 03:29:46;;;;;;;8.07;6.30;;;24.50;99.90;;;25.13;73.30;100876.97;4990130;28;20622;-63
2023/08/22 03:32:13;;;;;;;8.90;7.00;;;24.50;99.90;;;25.10;73.33;100875.50;4984072;28;20681;-63
2023/08/22 03:34:39;;;;;;;10.43;7.63;;;24.50;99.90;;;25.10;73.90;100870.16;4972777;28;21095;-62
2023/08/22 03:37:06;;;;;;;10.80;6.90;;;24.50;99.90;;;25.13;73.33;100864.41;4978423;28;20696;-63
2023/08/22 03:39:33;;;;;;;8.00;7.07;;;24.50;99.90;;;25.14;73.44;100862.56;5007822;28;21187;-63
2023/08/22 03:42:00;;;;;;;13.67;6.50;;;24.40;99.90;;;25.11;73.56;100860.28;4991975;28;20650;-62
2023/08/22 03:44:27;;;;;;;9.90;7.50;;;24.40;99.90;;;25.08;73.54;100853.53;4987477;28;20680;-63
2023/08/22 03:46:54;;;;;;;11.13;7.07;;;24.40;99.90;;;25.10;73.51;100864.00;4990802;28;20640;-63
2023/08/22 03:49:21;;;;;;;8.70;6.50;;;24.40;99.90;;;25.09;73.65;100860.50;4977598;28;20629;-64
2023/08/22 03:51:48;;;;;;;6.80;6.10;;;24.40;99.90;;;25.06;74.04;100854.75;4991308;28;20653;-63
2023/08/22 03:54:15;;;;;;;6.50;5.70;;;24.40;99.90;;;25.03;73.78;100861.28;4964107;28;20643;-63
2023/08/22 03:56:42;;;;;;;7.90;6.67;;;24.40;99.90;;;25.02;74.12;100861.50;4971941;28;20647;-63
2023/08/22 03:59:09;;;;;;;7.50;6.00;;;24.40;99.90;;;25.00;74.27;100860.88;4991165;28;20630;-63
2023/08/22 04:01:35;;;;;;;9.63;6.40;;;24.40;99.90;;;24.95;74.51;100863.31;4985736;28;20673;-64
2023/08/22 04:04:03;;;;;;;8.50;6.50;;;24.30;99.90;;;24.92;74.36;100869.03;4989536;28;20725;-64
2023/08/22 04:06:29;;;;;;;7.43;6.20;;;24.30;99.90;;;24.89;75.11;100872.09;4977591;28;20635;-64
2023/08/22 04:08:56;;;;;;;7.73;6.20;;;24.30;99.90;;;24.87;75.17;100869.66;4971001;28;20649;-63
2023/08/22 04:11:23;;;;;;;7.67;6.43;;;24.20;99.90;;;24.84;75.36;100875.38;4983595;28;20657;-62
2023/08/22 04:13:50;;;;;;;9.07;6.47;;;24.20;99.90;;;24.83;75.39;100875.56;4990286;28;21267;-63
2023/08/22 04:16:17;;;;;;;7.20;6.50;;;24.20;99.90;;;24.80;75.21;100878.63;4986604;28;20726;-63
2023/08/22 04:18:44;;;;;;;7.70;6.10;;;24.20;99.90;;;24.80;75.67;100879.44;4980506;28;21504;-63
2023/08/22 04:21:11;;;;;;;9.10;6.47;;;24.10;99.90;;;24.80;76.11;100878.63;4983555;28;20771;-63
2023/08/22 04:23:39;;;;;;;8.27;6.40;;;24.20;99.90;;;24.76;75.99;100872.03;4977095;28;20643;-63
2023/08/22 04:26:06;;;;;;;9.70;7.80;;;24.10;99.90;;;24.68;76.22;100873.78;4989685;28;21197;-64
2023/08/22 04:28:35;;;;;;;11.20;8.40;;;24.00;99.90;;;24.68;76.40;100881.78;4979566;28;20619;-63
2023/08/22 04:31:02;;;;;;;11.27;8.07;;;24.00;99.90;;;24.70;76.85;100883.47;4975729;28;20654;-64
2023/08/22 04:33:29;;;;;;;10.33;7.97;;;24.00;99.90;;;24.72;76.71;100892.94;4978025;28;20630;-63
2023/08/22 04:35:56;;;;;;;11.30;8.40;;;24.00;99.90;;;24.72;77.25;100882.25;4978000;28;20730;-62
2023/08/22 04:38:23;;;;;;;8.10;7.00;;;24.10;99.90;;;24.72;77.06;100878.75;4983221;28;20630;-62
2023/08/22 04:40:50;;;;;;;9.50;6.40;;;24.10;99.90;;;24.71;77.08;100883.25;4978998;28;20692;-64
2023/08/22 04:43:17;;;;;;;11.90;7.77;;;24.00;99.90;;;24.75;76.65;100881.03;4987024;28;20627;-63
2023/08/22 04:45:44;;;;;;;8.30;6.63;;;24.10;99.90;;;24.77;76.85;100881.69;4980141;28;20634;-64
2023/08/22 04:48:11;;;;;;;7.97;6.90;;;24.10;99.90;;;24.77;77.06;100887.03;4996557;28;21520;-64
2023/08/22 04:50:38;;;;;;;10.70;7.30;;;24.10;99.90;;;24.78;76.43;100883.31;4979885;28;20791;-63
2023/08/22 04:53:05;;;;;;;10.10;7.67;;;24.20;99.90;;;24.80;76.43;100889.28;4977457;28;20647;-64
2023/08/22 04:55:32;;;;;;;13.20;7.47;;;24.20;99.90;;;24.86;76.59;100889.34;4973722;28;20642;-62
2023/08/22 04:57:59;;;;;;;8.77;6.37;;;24.20;99.90;;;24.94;76.55;100893.69;4981716;28;21262;-63
2023/08/22 05:00:25;;;;;;;10.10;6.90;;;24.30;99.90;;;25.04;76.60;100888.81;4987068;28;21638;-63
2023/08/22 05:02:52;;;;;;;8.30;6.57;;;24.40;99.90;;;25.19;75.57;100900.19;4969301;28;20643;-63
2023/08/22 05:05:19;;;;;;;8.47;7.17;;;24.50;99.90;;;25.42;74.78;100898.06;4984135;28;20709;-63
2023/08/22 05:07:46;;;;;;;10.23;7.90;;;24.70;99.90;;;25.67;73.72;100903.69;4968882;28;20647;-62
2023/08/22 05:10:13;;;;;;;10.20;7.50;;;25.00;99.90;;;25.89;72.45;100895.31;4971037;28;20670;-64
2023/08/22 05:12:40;;;;;;;8.10;6.67;;;25.20;99.90;;;26.13;71.70;100905.44;4985920;28;20637;-64
2023/08/22 05:15:08;;;;;;;9.80;7.17;;;25.40;99.90;;;26.35;70.47;100899.88;4981943;28;20649;-63
2023/08/22 05:17:37;;;;;;;10.60;7.17;;;25.60;99.90;;;26.58;69.70;100897.59;4986341;28;20641;-63
2023/08/22 05:20:06;;;;;;;10.33;7.17;;;25.90;99.90;;;26.85;68.82;100899.25;5004488;28;20638;-61
2023/08/22 05:22:33;;;;;;;10.27;7.33;;;26.10;99.90;;;27.09;67.30;100905.78;4991720;28;21235;-63
2023/08/22 05:25:00;;;;;;;7.43;6.50;;;26.40;99.90;;;27.36;66.02;100905.50;4986640;28;20638;-63
2023/08/22 05:27:27;;;;;;;8.37;6.30;;;26.60;99.90;;;27.56;65.73;100911.56;4987583;28;20630;-63
2023/08/22 05:29:54;;;;;;;8.60;6.00;;;26.80;99.90;;;27.77;64.87;100909.63;4980756;28;20635;-63
2023/08/22 05:32:21;;;;;;;8.17;6.90;;;27.00;99.90;;;27.95;64.01;100909.69;4985095;28;20718;-63
2023/08/22 05:34:50;;;;;;;9.23;6.53;;;27.20;99.90;;;28.19;63.37;100908.94;5000166;28;20642;-63
2023/08/22 05:37:17;;;;;;;7.33;6.20;;;27.50;99.90;;;28.49;62.67;100923.34;4987404;28;21278;-64
2023/08/22 05:39:44;;;;;;;8.50;6.97;;;27.70;99.90;;;28.90;60.94;100914.72;4978278;28;20689;-63
2023/08/22 05:42:11;;;;;;;9.67;7.00;;;28.10;99.90;;;29.30;60.29;100915.94;5004728;28;20757;-63
2023/08/22 05:44:38;;;;;;;7.20;6.47;;;28.50;99.90;;;29.67;58.52;100920.19;4968756;28;20643;-63
2023/08/22 05:47:06;;;;;;;7.60;5.97;;;28.90;99.90;;;30.02;57.77;100925.72;4990250;28;20734;-63
2023/08/22 05:49:33;;;;;;;13.60;7.60;;;29.20;99.90;;;30.35;56.70;100925.22;4998159;28;21278;-63
2023/08/22 05:52:02;;;;;;;9.87;7.50;;;29.60;99.90;;;30.70;55.37;100927.94;4981124;28;20655;-62
2023/08/22 05:54:33;;;;;;;11.90;8.57;;;29.90;99.90;;;31.18;54.44;100928.50;4984173;28;20720;-63
2023/08/22 05:57:00;;;;;;;11.20;8.00;;;30.30;99.90;;;31.60;52.54;100916.44;4982241;28;21267;-62
2023/08/22 05:59:27;;;;;;;10.00;7.33;;;30.80;99.90;;;31.97;52.21;100933.88;4962210;28;20761;-64
2023/08/22 06:01:54;;;;;;;7.03;6.30;;;31.20;99.90;;;32.16;50.80;100928.28;4979456;28;20778;-63
2023/08/22 06:04:25;;;;;;;8.33;7.20;;;31.50;99.90;;;32.22;50.69;100928.13;4989148;28;20618;-68
2023/08/22 06:06:52;;;;;;;11.53;8.17;;;31.60;99.90;;;32.60;50.03;100938.19;4996058;28;21128;-69
2023/08/22 06:09:19;;;;;;;9.00;7.90;;;31.90;99.90;;;33.07;49.32;100947.56;4990269;28;20630;-67
2023/08/22 06:11:46;;;;;;;9.23;8.20;;;32.30;99.90;;;33.50;47.63;100939.44;4988445;28;20653;-69
2023/08/22 06:14:13;;;;;;;12.20;8.70;;;32.70;99.70;;;34.01;46.34;100937.31;4994568;28;20650;-67
2023/08/22 06:16:40;;;;;;;7.70;6.00;;;33.20;98.80;;;34.46;45.58;100931.44;4987761;28;20637;-68
2023/08/22 06:19:07;;;;;;;7.60;6.80;;;33.70;97.80;;;34.82;45.15;100928.72;4993563;28;20646;-67
2023/08/22 06:21:33;;;;;;;9.30;6.80;;;34.10;96.90;;;35.31;43.94;100933.88;4978710;28;21520;-68
2023/08/22 06:24:00;;;;;;;8.40;6.93;;;34.60;96.00;;;35.79;42.68;100938.91;4997536;28;20642;-67
2023/08/22 06:26:27;;;;;;;9.30;7.30;;;35.00;94.80;;;36.10;41.65;100937.88;4988757;28;20658;-69
2023/08/22 06:28:54;;;;;;;10.53;7.03;;;35.40;93.60;;;36.35;41.71;100942.50;4969564;28;21315;-68
2023/08/22 06:31:21;;;;;;;8.10;7.30;;;35.70;92.80;;;36.78;40.72;100946.56;4989040;28;20661;-69
2023/08/22 06:33:48;;;;;;;7.10;5.70;;;36.10;92.10;;;37.20;39.54;100945.09;4980168;28;20639;-69
2023/08/22 06:36:15;;;;;;;8.40;7.20;;;36.60;91.10;;;37.54;39.70;100938.97;4982264;28;21230;-70
2023/08/22 06:38:42;;;;;;;10.90;7.07;;;36.90;90.50;;;38.19;38.66;100933.06;4989433;28;20741;-69
2023/08/22 06:41:09;;;;;;;7.13;6.43;;;37.50;89.30;;;38.91;37.63;100942.25;4984910;28;20760;-69
2023/08/22 06:43:36;;;;;;;6.43;5.93;;;38.10;86.70;;;39.53;36.36;100947.44;4972524;28;20646;-69
2023/08/22 06:46:03;;;;;;;6.70;6.10;;;38.70;84.10;;;39.77;35.77;100942.75;4983130;28;20660;-69
2023/08/22 06:48:30;;;;;;;7.03;6.40;;;39.10;82.10;;;39.64;36.06;100937.22;4982954;28;20666;-69
2023/08/22 06:51:07;;;;;;;7.20;6.50;;;39.10;80.10;;;40.05;35.45;100933.59;4993320;28;20657;-69
2023/08/22 06:53:34;;;;;;;8.20;5.60;;;39.40;79.20;;;40.42;34.55;100940.94;4980677;28;20642;-69
2023/08/22 06:56:01;;;;;;;6.20;5.70;;;39.60;77.40;;;40.39;34.66;100937.94;4991366;28;20768;-69
2023/08/22 06:58:28;;;;;;;5.40;5.00;;;39.70;76.50;;;40.65;34.26;100939.97;4987875;28;20734;-70
2023/08/22 07:00:55;;;;;;;5.60;5.07;;;39.70;75.70;;;40.68;34.00;100944.00;4989486;28;20709;-69
2023/08/22 07:03:22;;;;;;;6.97;5.10;;;39.70;75.90;;;40.50;34.46;100940.25;4991706;28;20721;-69
2023/08/22 07:05:53;;;;;;;6.50;6.00;;;39.50;74.80;;;40.30;34.88;100948.75;4992632;28;20634;-69
2023/08/22 07:08:20;;;;;;;7.27;6.30;;;39.40;75.00;;;40.23;34.75;100943.69;4985161;28;20643;-69
2023/08/22 07:10:47;;;;;;;5.67;5.27;;;39.30;75.00;;;40.00;34.93;100941.06;4997835;28;21031;-69
2023/08/22 07:13:15;;;;;;;7.40;6.20;;;39.30;74.30;;;39.57;35.93;100951.25;4992720;28;20729;-69
2023/08/22 07:15:43;;;;;;;6.57;6.07;;;39.10;74.20;;;39.55;35.83;100950.72;4983036;28;20641;-71
2023/08/22 07:18:11;;;;;;;8.10;6.50;;;39.00;74.50;;;39.58;36.14;100947.41;4965969;28;20627;-69
2023/08/22 07:20:38;;;;;;;6.40;5.90;;;39.00;74.50;;;39.75;35.94;100946.91;4989557;28;20673;-69
2023/08/22 07:23:05;;;;;;;5.53;5.13;;;39.20;74.20;;;39.94;35.43;100943.03;4988679;28;20630;-69
2023/08/22 07:25:32;;;;;;;6.57;5.10;;;39.30;73.50;;;40.12;35.06;100946.91;4993422;28;20630;-69
2023/08/22 07:27:59;;;;;;;5.80;5.20;;;39.40;73.00;;;39.91;35.22;100937.38;4988566;28;20736;-69
2023/08/22 07:30:26;;;;;;;6.20;5.70;;;39.30;72.70;;;39.75;35.72;100938.69;4992621;28;20650;-69
2023/08/22 07:32:53;;;;;;;7.00;6.03;;;39.20;73.30;;;40.01;35.57;100942.69;4986794;28;20738;-70
2023/08/22 07:35:20;;;;;;;6.60;6.10;;;39.40;73.20;;;40.39;34.88;100938.75;4981719;28;20733;-69
2023/08/22 07:37:47;;;;;;;6.13;5.67;;;39.70;72.60;;;40.56;34.64;100939.03;4988714;28;20630;-69
2023/08/22 07:40:16;;;;;;;6.80;6.20;;;40.00;72.10;;;40.91;34.50;100949.31;4969710;28;20782;-70
2023/08/22 07:42:43;;;;;;;6.53;5.80;;;40.30;71.20;;;41.19;33.34;100949.31;4988487;28;20734;-70
2023/08/22 07:45:10;;;;;;;6.73;6.10;;;40.60;70.10;;;41.07;33.03;100947.06;4991381;28;20762;-70
2023/08/22 07:47:37;;;;;;;6.60;6.10;;;40.70;69.20;;;40.95;33.87;100942.09;4987235;28;20638;-70
2023/08/22 07:50:08;;;;;;;5.43;5.13;;;40.70;69.20;;;41.31;33.22;100941.41;4991763;28;20633;-69
2023/08/22 07:52:35;;;;;;;5.10;4.67;;;40.80;69.20;;;41.65;31.95;100942.56;4983000;28;20705;-71
2023/08/22 07:55:02;;;;;;;5.60;5.20;;;41.20;66.90;;;41.54;32.55;100941.16;4981380;28;20651;-70
2023/08/22 07:57:29;;;;;;;6.23;5.13;;;41.30;66.70;;;41.22;32.17;100941.28;4981549;28;20707;-71
2023/08/22 07:59:56;;;;;;;5.10;4.80;;;41.10;66.00;;;41.16;32.63;100936.22;4986654;28;20676;-69
2023/08/22 08:02:23;;;;;;;5.63;4.80;;;40.90;66.40;;;41.08;32.54;100942.41;4979785;28;20781;-70
2023/08/22 08:04:50;;;;;;;5.33;4.93;;;40.90;65.80;;;41.16;32.66;100939.78;4974681;28;20642;-69
2023/08/22 08:07:17;;;;;;;5.10;4.70;;;41.10;65.40;;;41.21;32.47;100941.59;4981440;28;20650;-71
2023/08/22 08:09:44;;;;;;;5.17;4.77;;;41.20;65.00;;;41.57;31.71;100948.72;4975258;28;21062;-68
2023/08/22 08:12:12;;;;;;;5.00;4.60;;;41.50;64.60;;;41.94;31.29;100939.41;4975373;28;20746;-69
2023/08/22 08:14:39;;;;;;;4.37;4.17;;;41.90;63.60;;;42.31;30.82;100940.97;4986420;28;20659;-70
2023/08/22 08:17:06;;;;;;;5.87;4.90;;;42.30;63.20;;;42.71;30.30;100950.06;4982253;28;20677;-71
2023/08/22 08:19:33;;;;;;;4.03;3.83;;;42.70;62.60;;;43.17;29.88;100940.22;4992230;28;20642;-70
2023/08/22 08:22:00;;;;;;;4.67;4.43;;;43.10;61.90;;;43.72;29.24;100943.28;4984238;28;20691;-70
2023/08/22 08:24:27;;;;;;;4.43;4.23;;;43.70;61.30;;;44.09;28.55;100943.75;4987529;28;20631;-70
2023/08/22 08:26:54;;;;;;;4.47;4.27;;;44.10;59.60;;;44.15;27.90;100939.69;4980233;28;20680;-70
2023/08/22 08:29:21;;;;;;;4.30;4.10;;;44.20;58.40;;;44.55;27.64;100944.63;4996352;28;20701;-70
2023/08/22 08:31:48;;;;;;;4.80;4.60;;;44.50;58.40;;;44.76;27.32;100936.41;4980530;28;20667;-70
2023/08/22 08:34:15;;;;;;;4.13;3.93;;;44.70;57.90;;;44.45;27.11;100946.91;4980386;28;20687;-70
2023/08/22 08:36:42;;;;;;;4.17;3.97;;;44.60;56.70;;;44.15;27.61;100947.94;4986676;28;20670;-72
2023/08/22 08:39:09;;;;;;;3.87;3.67;;;44.30;56.60;;;44.40;27.36;100942.38;4983865;28;20744;-70
2023/08/22 08:41:45;;;;;;;4.47;4.23;;;44.30;56.60;;;44.52;27.72;100937.00;4978761;28;20685;-70
2023/08/22 08:44:14;;;;;;;5.13;4.83;;;44.30;57.10;;;44.93;27.83;100939.13;4973275;28;20732;-71
2023/08/22 08:46:43;;;;;;;4.00;3.90;;;44.70;57.20;;;45.85;26.55;100943.53;4986180;28;20637;-70
2023/08/22 08:49:11;;;;;;;5.10;4.70;;;45.60;56.40;;;46.61;25.14;100943.88;5006375;28;21050;-71
2023/08/22 08:51:39;;;;;;;4.30;4.17;;;46.40;54.90;;;47.13;24.52;100945.97;4991963;28;21032;-70
2023/08/22 08:54:06;;;;;;;3.50;3.40;;;46.90;53.80;;;47.48;23.76;100945.13;4992311;28;20703;-71
2023/08/22 08:56:33;;;;;;;4.10;3.90;;;47.20;52.50;;;47.65;23.91;100948.72;4988844;28;20289;-70
2023/08/22 08:59:00;;;;;;;3.80;3.70;;;47.50;52.50;;;47.92;23.38;100945.22;4986448;28;20293;-70
2023/08/22 09:01:27;;;;;;;3.80;3.70;;;47.70;51.70;;;48.14;23.10;100948.22;4984045;28;20318;-70
2023/08/22 09:03:54;;;;;;;4.03;3.87;;;47.90;51.40;;;48.23;22.21;100948.88;4987159;28;20209;-70
2023/08/22 09:06:21;;;;;;;4.17;3.97;;;48.00;50.30;;;47.77;22.31;100935.72;4988779;28;20214;-70
2023/08/22 09:09:08;;;;;;;3.40;3.30;;;47.50;50.00;;;47.02;23.59;100931.03;4978302;28;20241;-71
2023/08/22 09:11:41;;;;;;;4.27;4.07;;;46.60;50.70;;;46.06;24.33;100940.75;4990555;28;20653;-70
2023/08/22 09:14:19;;;;;;;3.30;3.20;;;45.70;51.60;;;44.55;24.67;100928.09;4996636;28;21066;-70
2023/08/22 09:16:50;;;;;;;3.20;3.10;;;44.20;51.00;;;43.10;26.34;100930.84;4985326;28;20765;-73
2023/08/22 09:19:17;;;;;;;4.47;3.90;;;42.80;52.40;;;41.87;28.22;100925.31;4981746;28;20656;-70
2023/08/22 09:21:58;;;;;;;3.33;3.23;;;41.50;53.70;;;40.37;29.60;100923.75;4990026;28;20709;-69
2023/08/22 09:24:29;;;;;;;6.23;3.17;;;40.10;55.30;;;39.61;30.68;100921.44;4969499;28;21266;-70
2023/08/22 09:26:57;;;;;;;3.87;3.67;;;39.20;56.30;;;39.09;31.96;100915.00;4995075;28;20667;-69
2023/08/22 09:29:36;;;;;;;3.60;3.40;;;38.60;57.80;;;38.51;32.44;100918.88;4989996;28;20621;-70
2023/08/22 09:32:04;;;;;;;4.07;3.67;;;37.90;58.30;;;37.91;33.77;100918.31;4975102;28;20694;-69
2023/08/22 09:34:34;;;;;;;8.00;3.93;;;37.30;59.40;;;37.41;34.31;100915.06;4991698;28;20645;-70
2023/08/22 09:37:02;;;;;;;4.00;3.77;;;36.80;60.20;;;37.24;34.66;100912.69;4981151;28;20676;-64
2023/08/22 09:39:33;;;;;;;4.90;4.50;;;36.50;61.10;;;36.87;35.27;100918.50;4985189;28;20666;-70
2023/08/22 09:42:03;;;;;;;3.30;3.10;;;36.20;61.50;;;36.62;35.83;100906.88;5000491;28;20681;-70
2023/08/22 09:44:30;;;;;;;4.70;4.40;;;35.90;61.80;;;36.44;36.75;100900.94;4980055;28;20624;-69
2023/08/22 09:46:57;;;;;;;3.80;3.50;;;35.70;63.00;;;36.29;36.02;100900.13;4987745;28;20634;-70
2023/08/22 09:49:24;;;;;;;3.50;3.30;;;35.50;62.50;;;36.22;36.12;100910.47;4980065;28;20639;-68
2023/08/22 09:51:55;;;;;;;3.67;3.47;;;35.40;62.80;;;36.23;36.59;100899.31;4987478;28;20653;-69
2023/08/22 09:54:23;;;;;;;6.10;3.27;;;35.40;63.40;;;36.13;36.72;100901.22;4990710;28;20642;-69
2023/08/22 09:56:51;;;;;;;5.47;3.23;;;35.30;63.60;;;36.02;36.29;100902.28;4983924;28;20646;-69
2023/08/22 09:59:19;;;;;;;4.37;2.60;;;35.10;62.90;;;35.76;34.76;100898.72;4990461;28;20649;-69
2023/08/22 10:01:48;;;;;;;3.33;3.13;;;35.00;60.90;;;35.51;35.56;100904.09;4983182;28;20698;-69
2023/08/22 10:04:18;;;;;;;3.13;2.90;;;34.70;61.70;;;35.38;35.96;100908.09;4985634;28;20642;-69
2023/08/22 10:06:49;;;;;;;3.10;2.93;;;34.60;62.30;;;35.33;36.40;100901.88;4969006;28;20654;-70
2023/08/22 10:09:21;;;;;;;3.70;3.50;;;34.50;62.70;;;35.33;36.64;100907.28;4987716;28;20643;-69
2023/08/22 10:11:57;;;;;;;3.87;3.57;;;34.50;63.10;;;35.34;37.42;100907.03;4986530;28;20659;-69
2023/08/22 10:14:48;;;;;;;4.03;3.73;;;34.50;63.90;;;35.56;37.36;100914.97;4978822;28;20701;-69